sensor_id;sensor_type;location;lat;lon;timestamp;P1;durP1;ratioP1;P2;durP2;ratioP2
1048;SDS011;513;51.444;7.196;2023-07-29T00:02:05;8.98;;;4.78;;
1048;SDS011;513;51.444;7.196;2023-07-29T00:04:32;6.78;;;5.60;;
1048;SDS011;513;51.444;7.196;2023-07-29T00:06:59;11.50;;;7.20;;
1048;SDS011;513;51.444;7.196;2023-07-29T00:09:26;8.98;;;7.60;;
1048;SDS011;513;51.444;7.196;2023-07-29T00:11:53;10.47;;;8.70;;
1048;SDS011;513;51.444;7.196;2023-07-29T00:14:20;11.52;;;8.60;;
1048;SDS011;513;51.444;7.196;2023-07-29T00:16:48;10.77;;;8.93;;
1048;SDS011;513;51.444;7.196;2023-07-29T00:19:15;11.45;;;8.88;;
1048;SDS011;513;51.444;7.196;2023-07-29T00:21:42;12.00;;;9.73;;
1048;SDS011;513;51.444;7.196;2023-07-29T00:24:09;10.82;;;9.25;;
1048;SDS011;513;51.444;7.196;2023-07-29T00:26:36;11.57;;;9.23;;
1048;SDS011;513;51.444;7.196;2023-07-29T00:29:03;11.93;;;7.90;;
1048;SDS011;513;51.444;7.196;2023-07-29T00:31:30;9.02;;;8.15;;
1048;SDS011;513;51.444;7.196;2023-07-29T00:33:58;9.40;;;8.27;;
1048;SDS011;513;51.444;7.196;2023-07-29T00:36:25;11.25;;;8.68;;
1048;SDS011;513;51.444;7.196;2023-07-29T00:38:52;11.57;;;8.75;;
1048;SDS011;513;51.444;7.196;2023-07-29T00:41:22;9.93;;;8.40;;
1048;SDS011;513;51.444;7.196;2023-07-29T00:43:49;10.23;;;9.10;;
1048;SDS011;513;51.444;7.196;2023-07-29T00:46:16;10.48;;;9.20;;
1048;SDS011;513;51.444;7.196;2023-07-29T00:48:44;11.02;;;9.07;;
1048;SDS011;513;51.444;7.196;2023-07-29T00:51:12;11.20;;;8.83;;
1048;SDS011;513;51.444;7.196;2023-07-29T00:53:39;9.85;;;8.88;;
1048;SDS011;513;51.444;7.196;2023-07-29T00:56:06;11.63;;;9.18;;
1048;SDS011;513;51.444;7.196;2023-07-29T00:58:33;10.98;;;9.10;;
1048;SDS011;513;51.444;7.196;2023-07-29T01:01:00;9.65;;;8.15;;
1048;SDS011;513;51.444;7.196;2023-07-29T01:03:27;9.13;;;8.17;;
1048;SDS011;513;51.444;7.196;2023-07-29T01:05:58;10.73;;;8.23;;
1048;SDS011;513;51.444;7.196;2023-07-29T01:08:31;8.98;;;8.07;;
1048;SDS011;513;51.444;7.196;2023-07-29T01:10:58;8.85;;;7.28;;
1048;SDS011;513;51.444;7.196;2023-07-29T01:13:30;7.88;;;6.40;;
1048;SDS011;513;51.444;7.196;2023-07-29T01:15:58;7.97;;;6.77;;
1048;SDS011;513;51.444;7.196;2023-07-29T01:18:28;7.55;;;6.30;;
1048;SDS011;513;51.444;7.196;2023-07-29T01:20:57;8.55;;;7.20;;
1048;SDS011;513;51.444;7.196;2023-07-29T01:23:26;9.52;;;7.63;;
1048;SDS011;513;51.444;7.196;2023-07-29T01:25:55;10.38;;;7.32;;
1048;SDS011;513;51.444;7.196;2023-07-29T01:28:22;11.13;;;7.88;;
1048;SDS011;513;51.444;7.196;2023-07-29T01:30:50;8.10;;;7.30;;
1048;SDS011;513;51.444;7.196;2023-07-29T01:33:20;10.17;;;6.90;;
1048;SDS011;513;51.444;7.196;2023-07-29T01:35:51;8.90;;;7.10;;
1048;SDS011;513;51.444;7.196;2023-07-29T01:38:23;10.55;;;7.53;;
1048;SDS011;513;51.444;7.196;2023-07-29T01:40:52;10.05;;;7.38;;
1048;SDS011;513;51.444;7.196;2023-07-29T01:43:20;7.93;;;7.00;;
1048;SDS011;513;51.444;7.196;2023-07-29T01:45:48;7.90;;;6.90;;
1048;SDS011;513;51.444;7.196;2023-07-29T01:48:16;9.10;;;6.38;;
1048;SDS011;513;51.444;7.196;2023-07-29T01:50:43;7.13;;;6.43;;
1048;SDS011;513;51.444;7.196;2023-07-29T01:53:10;7.43;;;6.32;;
1048;SDS011;513;51.444;7.196;2023-07-29T01:55:37;7.03;;;6.30;;
1048;SDS011;513;51.444;7.196;2023-07-29T01:58:05;7.70;;;6.20;;
1048;SDS011;513;51.444;7.196;2023-07-29T02:00:32;7.65;;;6.43;;
1048;SDS011;513;51.444;7.196;2023-07-29T02:02:59;8.20;;;6.90;;
1048;SDS011;513;51.444;7.196;2023-07-29T02:05:26;9.73;;;6.70;;
1048;SDS011;513;51.444;7.196;2023-07-29T02:07:53;8.20;;;6.47;;
1048;SDS011;513;51.444;7.196;2023-07-29T02:10:20;8.68;;;6.70;;
1048;SDS011;513;51.444;7.196;2023-07-29T02:12:47;7.30;;;6.57;;
1048;SDS011;513;51.444;7.196;2023-07-29T02:15:16;8.20;;;7.00;;
1048;SDS011;513;51.444;7.196;2023-07-29T02:17:43;8.63;;;7.15;;
1048;SDS011;513;51.444;7.196;2023-07-29T02:20:10;9.10;;;7.18;;
1048;SDS011;513;51.444;7.196;2023-07-29T02:22:38;9.05;;;6.85;;
1048;SDS011;513;51.444;7.196;2023-07-29T02:25:05;8.43;;;7.07;;
1048;SDS011;513;51.444;7.196;2023-07-29T02:27:32;8.20;;;7.07;;
1048;SDS011;513;51.444;7.196;2023-07-29T02:29:59;8.65;;;6.30;;
1048;SDS011;513;51.444;7.196;2023-07-29T02:32:27;9.80;;;6.70;;
1048;SDS011;513;51.444;7.196;2023-07-29T02:34:54;7.65;;;6.85;;
1048;SDS011;513;51.444;7.196;2023-07-29T02:37:21;9.63;;;7.15;;
1048;SDS011;513;51.444;7.196;2023-07-29T02:39:48;8.27;;;7.00;;
1048;SDS011;513;51.444;7.196;2023-07-29T02:42:15;10.52;;;7.00;;
1048;SDS011;513;51.444;7.196;2023-07-29T02:44:42;6.78;;;6.07;;
1048;SDS011;513;51.444;7.196;2023-07-29T02:47:09;7.18;;;5.85;;
1048;SDS011;513;51.444;7.196;2023-07-29T02:49:38;6.30;;;5.70;;
1048;SDS011;513;51.444;7.196;2023-07-29T02:52:05;6.55;;;5.88;;
1048;SDS011;513;51.444;7.196;2023-07-29T02:54:32;7.78;;;5.70;;
1048;SDS011;513;51.444;7.196;2023-07-29T02:56:59;7.20;;;6.00;;
1048;SDS011;513;51.444;7.196;2023-07-29T02:59:26;9.85;;;6.10;;
1048;SDS011;513;51.444;7.196;2023-07-29T03:01:53;8.25;;;5.85;;
1048;SDS011;513;51.444;7.196;2023-07-29T03:04:20;8.57;;;6.43;;
1048;SDS011;513;51.444;7.196;2023-07-29T03:06:49;6.82;;;5.63;;
1048;SDS011;513;51.444;7.196;2023-07-29T03:09:16;7.20;;;5.82;;
1048;SDS011;513;51.444;7.196;2023-07-29T03:11:43;6.63;;;5.85;;
1048;SDS011;513;51.444;7.196;2023-07-29T03:14:11;6.00;;;5.45;;
1048;SDS011;513;51.444;7.196;2023-07-29T03:16:38;8.75;;;6.47;;
1048;SDS011;513;51.444;7.196;2023-07-29T03:19:05;9.85;;;6.22;;
1048;SDS011;513;51.444;7.196;2023-07-29T03:21:32;8.57;;;6.10;;
1048;SDS011;513;51.444;7.196;2023-07-29T03:24:00;7.72;;;5.90;;
1048;SDS011;513;51.444;7.196;2023-07-29T03:26:27;6.87;;;5.90;;
1048;SDS011;513;51.444;7.196;2023-07-29T03:28:54;7.03;;;5.80;;
1048;SDS011;513;51.444;7.196;2023-07-29T03:31:21;8.00;;;6.68;;
1048;SDS011;513;51.444;7.196;2023-07-29T03:33:48;8.63;;;6.60;;
1048;SDS011;513;51.444;7.196;2023-07-29T03:36:15;8.90;;;6.28;;
1048;SDS011;513;51.444;7.196;2023-07-29T03:38:42;8.05;;;6.55;;
1048;SDS011;513;51.444;7.196;2023-07-29T03:41:11;9.05;;;7.03;;
1048;SDS011;513;51.444;7.196;2023-07-29T03:43:38;12.00;;;7.10;;
1048;SDS011;513;51.444;7.196;2023-07-29T03:46:05;9.82;;;6.25;;
1048;SDS011;513;51.444;7.196;2023-07-29T03:48:32;9.93;;;6.80;;
1048;SDS011;513;51.444;7.196;2023-07-29T03:50:59;10.67;;;6.47;;
1048;SDS011;513;51.444;7.196;2023-07-29T03:53:26;11.68;;;5.85;;
1048;SDS011;513;51.444;7.196;2023-07-29T03:55:53;7.07;;;6.32;;
1048;SDS011;513;51.444;7.196;2023-07-29T03:58:21;9.30;;;6.10;;
1048;SDS011;513;51.444;7.196;2023-07-29T04:00:49;9.18;;;6.53;;
1048;SDS011;513;51.444;7.196;2023-07-29T04:03:16;7.93;;;6.13;;
1048;SDS011;513;51.444;7.196;2023-07-29T04:05:42;9.43;;;6.20;;
1048;SDS011;513;51.444;7.196;2023-07-29T04:08:09;7.65;;;6.70;;
1048;SDS011;513;51.444;7.196;2023-07-29T04:10:36;7.50;;;6.28;;
1048;SDS011;513;51.444;7.196;2023-07-29T04:13:04;8.85;;;7.30;;
1048;SDS011;513;51.444;7.196;2023-07-29T04:15:32;8.45;;;7.60;;
1048;SDS011;513;51.444;7.196;2023-07-29T04:17:59;10.27;;;8.15;;
1048;SDS011;513;51.444;7.196;2023-07-29T04:20:26;12.07;;;8.40;;
1048;SDS011;513;51.444;7.196;2023-07-29T04:22:53;8.90;;;7.73;;
1048;SDS011;513;51.444;7.196;2023-07-29T04:25:20;9.23;;;8.27;;
1048;SDS011;513;51.444;7.196;2023-07-29T04:27:47;10.75;;;9.20;;
1048;SDS011;513;51.444;7.196;2023-07-29T04:30:14;11.30;;;9.30;;
1048;SDS011;513;51.444;7.196;2023-07-29T04:32:43;11.25;;;9.13;;
1048;SDS011;513;51.444;7.196;2023-07-29T04:35:13;13.05;;;10.05;;
1048;SDS011;513;51.444;7.196;2023-07-29T04:37:40;12.85;;;8.88;;
1048;SDS011;513;51.444;7.196;2023-07-29T04:40:07;11.15;;;9.25;;
1048;SDS011;513;51.444;7.196;2023-07-29T04:42:35;11.40;;;10.20;;
1048;SDS011;513;51.444;7.196;2023-07-29T04:45:03;12.57;;;9.80;;
1048;SDS011;513;51.444;7.196;2023-07-29T04:47:30;10.48;;;9.35;;
1048;SDS011;513;51.444;7.196;2023-07-29T04:49:58;10.23;;;8.60;;
1048;SDS011;513;51.444;7.196;2023-07-29T04:52:25;9.70;;;8.43;;
1048;SDS011;513;51.444;7.196;2023-07-29T04:54:52;11.30;;;8.38;;
1048;SDS011;513;51.444;7.196;2023-07-29T04:57:19;9.73;;;8.73;;
1048;SDS011;513;51.444;7.196;2023-07-29T04:59:46;11.98;;;8.98;;
1048;SDS011;513;51.444;7.196;2023-07-29T05:02:13;12.25;;;10.15;;
1048;SDS011;513;51.444;7.196;2023-07-29T05:04:40;14.55;;;9.98;;
1048;SDS011;513;51.444;7.196;2023-07-29T05:07:09;17.48;;;10.00;;
1048;SDS011;513;51.444;7.196;2023-07-29T05:09:36;11.70;;;9.73;;
1048;SDS011;513;51.444;7.196;2023-07-29T05:12:03;11.30;;;10.13;;
1048;SDS011;513;51.444;7.196;2023-07-29T05:14:30;11.93;;;9.70;;
1048;SDS011;513;51.444;7.196;2023-07-29T05:16:57;13.23;;;10.30;;
1048;SDS011;513;51.444;7.196;2023-07-29T05:19:24;14.00;;;11.25;;
1048;SDS011;513;51.444;7.196;2023-07-29T05:21:51;15.23;;;12.75;;
1048;SDS011;513;51.444;7.196;2023-07-29T05:24:19;14.40;;;12.27;;
1048;SDS011;513;51.444;7.196;2023-07-29T05:26:46;17.25;;;12.52;;
1048;SDS011;513;51.444;7.196;2023-07-29T05:29:13;16.67;;;13.68;;
1048;SDS011;513;51.444;7.196;2023-07-29T05:31:40;17.55;;;13.23;;
1048;SDS011;513;51.444;7.196;2023-07-29T05:34:07;16.92;;;13.00;;
1048;SDS011;513;51.444;7.196;2023-07-29T05:36:34;15.68;;;14.07;;
1048;SDS011;513;51.444;7.196;2023-07-29T05:39:01;17.27;;;14.02;;
1048;SDS011;513;51.444;7.196;2023-07-29T05:41:30;17.35;;;14.57;;
1048;SDS011;513;51.444;7.196;2023-07-29T05:43:57;15.80;;;14.07;;
1048;SDS011;513;51.444;7.196;2023-07-29T05:46:24;19.45;;;14.27;;
1048;SDS011;513;51.444;7.196;2023-07-29T05:48:51;17.13;;;14.40;;
1048;SDS011;513;51.444;7.196;2023-07-29T05:51:18;18.50;;;15.25;;
1048;SDS011;513;51.444;7.196;2023-07-29T05:53:45;17.70;;;14.80;;
1048;SDS011;513;51.444;7.196;2023-07-29T05:56:12;18.42;;;14.93;;
1048;SDS011;513;51.444;7.196;2023-07-29T05:58:40;17.30;;;15.00;;
1048;SDS011;513;51.444;7.196;2023-07-29T06:01:07;19.52;;;14.95;;
1048;SDS011;513;51.444;7.196;2023-07-29T06:03:34;18.35;;;15.18;;
1048;SDS011;513;51.444;7.196;2023-07-29T06:06:01;17.43;;;15.20;;
1048;SDS011;513;51.444;7.196;2023-07-29T06:08:28;17.38;;;15.05;;
1048;SDS011;513;51.444;7.196;2023-07-29T06:10:58;19.13;;;15.43;;
1048;SDS011;513;51.444;7.196;2023-07-29T06:13:25;17.10;;;14.13;;
1048;SDS011;513;51.444;7.196;2023-07-29T06:15:53;14.05;;;11.00;;
1048;SDS011;513;51.444;7.196;2023-07-29T06:18:20;12.10;;;10.57;;
1048;SDS011;513;51.444;7.196;2023-07-29T06:20:47;12.73;;;10.73;;
1048;SDS011;513;51.444;7.196;2023-07-29T06:23:14;14.60;;;10.50;;
1048;SDS011;513;51.444;7.196;2023-07-29T06:25:41;11.13;;;9.98;;
1048;SDS011;513;51.444;7.196;2023-07-29T06:28:08;9.07;;;8.07;;
1048;SDS011;513;51.444;7.196;2023-07-29T06:30:35;10.93;;;7.70;;
1048;SDS011;513;51.444;7.196;2023-07-29T06:33:04;7.63;;;5.68;;
1048;SDS011;513;51.444;7.196;2023-07-29T06:35:31;7.07;;;5.80;;
1048;SDS011;513;51.444;7.196;2023-07-29T06:37:57;8.07;;;5.45;;
1048;SDS011;513;51.444;7.196;2023-07-29T06:40:24;7.32;;;5.60;;
1048;SDS011;513;51.444;7.196;2023-07-29T06:42:52;6.20;;;4.75;;
1048;SDS011;513;51.444;7.196;2023-07-29T06:45:18;6.07;;;4.40;;
1048;SDS011;513;51.444;7.196;2023-07-29T06:47:45;4.75;;;3.65;;
1048;SDS011;513;51.444;7.196;2023-07-29T06:50:14;6.43;;;3.83;;
1048;SDS011;513;51.444;7.196;2023-07-29T06:52:41;6.03;;;3.33;;
1048;SDS011;513;51.444;7.196;2023-07-29T06:55:08;4.80;;;3.33;;
1048;SDS011;513;51.444;7.196;2023-07-29T06:57:35;4.40;;;3.00;;
1048;SDS011;513;51.444;7.196;2023-07-29T07:00:02;4.88;;;3.20;;
1048;SDS011;513;51.444;7.196;2023-07-29T07:02:29;5.03;;;2.80;;
1048;SDS011;513;51.444;7.196;2023-07-29T07:04:56;6.82;;;3.78;;
1048;SDS011;513;51.444;7.196;2023-07-29T07:07:24;4.78;;;3.40;;
1048;SDS011;513;51.444;7.196;2023-07-29T07:09:51;5.85;;;3.33;;
1048;SDS011;513;51.444;7.196;2023-07-29T07:12:18;5.40;;;3.45;;
1048;SDS011;513;51.444;7.196;2023-07-29T07:14:45;6.47;;;3.53;;
1048;SDS011;513;51.444;7.196;2023-07-29T07:17:12;4.50;;;3.60;;
1048;SDS011;513;51.444;7.196;2023-07-29T07:19:39;5.63;;;3.50;;
1048;SDS011;513;51.444;7.196;2023-07-29T07:22:06;6.55;;;3.40;;
1048;SDS011;513;51.444;7.196;2023-07-29T07:24:35;6.97;;;3.53;;
1048;SDS011;513;51.444;7.196;2023-07-29T07:27:02;5.30;;;3.25;;
1048;SDS011;513;51.444;7.196;2023-07-29T07:29:29;4.65;;;3.13;;
1048;SDS011;513;51.444;7.196;2023-07-29T07:31:56;5.38;;;3.50;;
1048;SDS011;513;51.444;7.196;2023-07-29T07:34:23;4.47;;;3.20;;
1048;SDS011;513;51.444;7.196;2023-07-29T07:36:51;5.00;;;3.17;;
1048;SDS011;513;51.444;7.196;2023-07-29T07:39:18;4.68;;;2.70;;
1048;SDS011;513;51.444;7.196;2023-07-29T07:41:46;3.58;;;2.50;;
1048;SDS011;513;51.444;7.196;2023-07-29T07:44:13;3.38;;;2.33;;
1048;SDS011;513;51.444;7.196;2023-07-29T07:46:42;3.67;;;2.20;;
1048;SDS011;513;51.444;7.196;2023-07-29T07:49:10;3.93;;;2.30;;
1048;SDS011;513;51.444;7.196;2023-07-29T07:51:37;3.37;;;2.10;;
1048;SDS011;513;51.444;7.196;2023-07-29T07:54:04;3.08;;;2.08;;
1048;SDS011;513;51.444;7.196;2023-07-29T07:56:31;3.95;;;2.40;;
1048;SDS011;513;51.444;7.196;2023-07-29T07:59:00;2.90;;;2.35;;
1048;SDS011;513;51.444;7.196;2023-07-29T08:01:27;3.05;;;2.30;;
1048;SDS011;513;51.444;7.196;2023-07-29T08:03:54;4.10;;;2.20;;
1048;SDS011;513;51.444;7.196;2023-07-29T08:06:21;3.80;;;2.10;;
1048;SDS011;513;51.444;7.196;2023-07-29T08:08:48;3.50;;;2.30;;
1048;SDS011;513;51.444;7.196;2023-07-29T08:11:15;3.22;;;1.95;;
1048;SDS011;513;51.444;7.196;2023-07-29T08:13:42;4.05;;;2.20;;
1048;SDS011;513;51.444;7.196;2023-07-29T08:16:10;3.50;;;2.35;;
1048;SDS011;513;51.444;7.196;2023-07-29T08:18:37;3.20;;;2.13;;
1048;SDS011;513;51.444;7.196;2023-07-29T08:21:04;3.57;;;2.30;;
1048;SDS011;513;51.444;7.196;2023-07-29T08:23:34;3.97;;;2.67;;
1048;SDS011;513;51.444;7.196;2023-07-29T08:26:02;3.47;;;2.40;;
1048;SDS011;513;51.444;7.196;2023-07-29T08:28:30;4.37;;;3.00;;
1048;SDS011;513;51.444;7.196;2023-07-29T08:30:57;4.22;;;3.17;;
1048;SDS011;513;51.444;7.196;2023-07-29T08:33:26;2.60;;;2.40;;
1048;SDS011;513;51.444;7.196;2023-07-29T08:35:53;2.50;;;2.13;;
1048;SDS011;513;51.444;7.196;2023-07-29T08:38:20;4.10;;;1.90;;
1048;SDS011;513;51.444;7.196;2023-07-29T08:40:49;2.50;;;1.63;;
1048;SDS011;513;51.444;7.196;2023-07-29T08:43:17;3.45;;;1.63;;
1048;SDS011;513;51.444;7.196;2023-07-29T08:45:45;3.45;;;1.52;;
1048;SDS011;513;51.444;7.196;2023-07-29T08:48:13;3.28;;;2.00;;
1048;SDS011;513;51.444;7.196;2023-07-29T08:50:44;3.08;;;1.83;;
1048;SDS011;513;51.444;7.196;2023-07-29T08:53:11;2.10;;;1.10;;
1048;SDS011;513;51.444;7.196;2023-07-29T08:55:39;1.33;;;1.08;;
1048;SDS011;513;51.444;7.196;2023-07-29T08:58:06;1.50;;;1.25;;
1048;SDS011;513;51.444;7.196;2023-07-29T09:00:33;2.05;;;1.60;;
1048;SDS011;513;51.444;7.196;2023-07-29T09:03:01;2.65;;;1.90;;
1048;SDS011;513;51.444;7.196;2023-07-29T09:05:32;2.95;;;2.15;;
1048;SDS011;513;51.444;7.196;2023-07-29T09:08:01;3.00;;;2.13;;
1048;SDS011;513;51.444;7.196;2023-07-29T09:10:29;2.20;;;1.93;;
1048;SDS011;513;51.444;7.196;2023-07-29T09:12:56;2.70;;;1.52;;
1048;SDS011;513;51.444;7.196;2023-07-29T09:15:26;2.92;;;1.50;;
1048;SDS011;513;51.444;7.196;2023-07-29T09:17:54;1.55;;;1.40;;
1048;SDS011;513;51.444;7.196;2023-07-29T09:20:25;2.33;;;1.30;;
1048;SDS011;513;51.444;7.196;2023-07-29T09:22:53;2.45;;;1.33;;
1048;SDS011;513;51.444;7.196;2023-07-29T09:25:25;1.10;;;0.93;;
1048;SDS011;513;51.444;7.196;2023-07-29T09:27:52;2.00;;;1.20;;
1048;SDS011;513;51.444;7.196;2023-07-29T09:30:19;3.22;;;1.20;;
1048;SDS011;513;51.444;7.196;2023-07-29T09:32:47;1.35;;;1.08;;
1048;SDS011;513;51.444;7.196;2023-07-29T09:35:14;1.50;;;1.00;;
1048;SDS011;513;51.444;7.196;2023-07-29T09:37:41;2.75;;;1.10;;
1048;SDS011;513;51.444;7.196;2023-07-29T09:40:12;3.15;;;1.08;;
1048;SDS011;513;51.444;7.196;2023-07-29T09:42:41;1.45;;;1.00;;
1048;SDS011;513;51.444;7.196;2023-07-29T09:45:18;2.20;;;1.20;;
1048;SDS011;513;51.444;7.196;2023-07-29T09:47:46;1.40;;;1.30;;
1048;SDS011;513;51.444;7.196;2023-07-29T09:50:13;2.08;;;1.33;;
1048;SDS011;513;51.444;7.196;2023-07-29T09:52:41;4.25;;;2.22;;
1048;SDS011;513;51.444;7.196;2023-07-29T09:55:09;1.70;;;1.60;;
1048;SDS011;513;51.444;7.196;2023-07-29T09:57:36;2.90;;;1.60;;
1048;SDS011;513;51.444;7.196;2023-07-29T10:00:06;3.22;;;1.67;;
1048;SDS011;513;51.444;7.196;2023-07-29T10:02:36;2.03;;;1.83;;
1048;SDS011;513;51.444;7.196;2023-07-29T10:05:03;1.90;;;1.60;;
1048;SDS011;513;51.444;7.196;2023-07-29T10:07:31;2.78;;;1.48;;
1048;SDS011;513;51.444;7.196;2023-07-29T10:10:00;2.03;;;1.20;;
1048;SDS011;513;51.444;7.196;2023-07-29T10:12:29;1.45;;;1.33;;
1048;SDS011;513;51.444;7.196;2023-07-29T10:14:58;2.13;;;1.15;;
1048;SDS011;513;51.444;7.196;2023-07-29T10:17:27;2.72;;;1.30;;
1048;SDS011;513;51.444;7.196;2023-07-29T10:19:55;1.83;;;1.10;;
1048;SDS011;513;51.444;7.196;2023-07-29T10:22:24;2.30;;;1.00;;
1048;SDS011;513;51.444;7.196;2023-07-29T10:24:52;1.83;;;0.90;;
1048;SDS011;513;51.444;7.196;2023-07-29T10:27:20;1.02;;;0.90;;
1048;SDS011;513;51.444;7.196;2023-07-29T10:29:49;1.08;;;0.85;;
1048;SDS011;513;51.444;7.196;2023-07-29T10:32:17;1.92;;;1.00;;
1048;SDS011;513;51.444;7.196;2023-07-29T10:34:46;2.13;;;1.00;;
1048;SDS011;513;51.444;7.196;2023-07-29T10:37:13;2.22;;;1.20;;
1048;SDS011;513;51.444;7.196;2023-07-29T10:39:41;1.92;;;1.27;;
1048;SDS011;513;51.444;7.196;2023-07-29T10:42:18;2.43;;;1.90;;
1048;SDS011;513;51.444;7.196;2023-07-29T10:44:48;1.98;;;1.77;;
1048;SDS011;513;51.444;7.196;2023-07-29T10:47:17;1.70;;;1.20;;
1048;SDS011;513;51.444;7.196;2023-07-29T10:49:45;2.08;;;1.10;;
1048;SDS011;513;51.444;7.196;2023-07-29T10:52:13;2.80;;;1.10;;
1048;SDS011;513;51.444;7.196;2023-07-29T10:54:41;4.40;;;1.10;;
1048;SDS011;513;51.444;7.196;2023-07-29T10:57:12;1.52;;;1.17;;
1048;SDS011;513;51.444;7.196;2023-07-29T10:59:39;1.70;;;1.15;;
1048;SDS011;513;51.444;7.196;2023-07-29T11:02:12;2.97;;;1.38;;
1048;SDS011;513;51.444;7.196;2023-07-29T11:04:47;2.25;;;1.00;;
1048;SDS011;513;51.444;7.196;2023-07-29T11:07:21;3.55;;;1.20;;
1048;SDS011;513;51.444;7.196;2023-07-29T11:09:55;2.00;;;1.60;;
1048;SDS011;513;51.444;7.196;2023-07-29T11:12:35;2.00;;;1.17;;
1048;SDS011;513;51.444;7.196;2023-07-29T11:15:03;1.58;;;1.20;;
1048;SDS011;513;51.444;7.196;2023-07-29T11:17:32;2.33;;;1.20;;
1048;SDS011;513;51.444;7.196;2023-07-29T11:20:01;1.80;;;1.20;;
1048;SDS011;513;51.444;7.196;2023-07-29T11:22:29;1.55;;;1.00;;
1048;SDS011;513;51.444;7.196;2023-07-29T11:24:56;2.03;;;1.10;;
1048;SDS011;513;51.444;7.196;2023-07-29T11:27:23;1.67;;;1.03;;
1048;SDS011;513;51.444;7.196;2023-07-29T11:29:50;3.80;;;1.20;;
1048;SDS011;513;51.444;7.196;2023-07-29T11:32:17;2.10;;;1.20;;
1048;SDS011;513;51.444;7.196;2023-07-29T11:34:44;1.50;;;1.10;;
1048;SDS011;513;51.444;7.196;2023-07-29T11:37:12;2.72;;;1.20;;
1048;SDS011;513;51.444;7.196;2023-07-29T11:39:39;1.70;;;1.00;;
1048;SDS011;513;51.444;7.196;2023-07-29T11:42:06;1.98;;;1.23;;
1048;SDS011;513;51.444;7.196;2023-07-29T11:44:33;2.40;;;1.35;;
1048;SDS011;513;51.444;7.196;2023-07-29T11:47:01;2.57;;;1.43;;
1048;SDS011;513;51.444;7.196;2023-07-29T11:49:28;1.38;;;1.25;;
1048;SDS011;513;51.444;7.196;2023-07-29T11:51:55;4.93;;;1.50;;
1048;SDS011;513;51.444;7.196;2023-07-29T11:54:23;3.08;;;1.30;;
1048;SDS011;513;51.444;7.196;2023-07-29T11:56:51;2.45;;;1.20;;
1048;SDS011;513;51.444;7.196;2023-07-29T11:59:19;1.80;;;1.25;;
1048;SDS011;513;51.444;7.196;2023-07-29T12:01:46;1.85;;;1.40;;
1048;SDS011;513;51.444;7.196;2023-07-29T12:04:13;2.40;;;1.30;;
1048;SDS011;513;51.444;7.196;2023-07-29T12:06:40;2.70;;;1.48;;
1048;SDS011;513;51.444;7.196;2023-07-29T12:09:07;3.80;;;1.27;;
1048;SDS011;513;51.444;7.196;2023-07-29T12:11:36;1.50;;;1.20;;
1048;SDS011;513;51.444;7.196;2023-07-29T12:14:03;2.17;;;1.17;;
1048;SDS011;513;51.444;7.196;2023-07-29T12:16:30;2.63;;;1.30;;
1048;SDS011;513;51.444;7.196;2023-07-29T12:19:00;1.73;;;1.20;;
1048;SDS011;513;51.444;7.196;2023-07-29T12:21:27;1.50;;;1.20;;
1048;SDS011;513;51.444;7.196;2023-07-29T12:23:54;3.83;;;1.33;;
1048;SDS011;513;51.444;7.196;2023-07-29T12:26:21;2.05;;;1.40;;
1048;SDS011;513;51.444;7.196;2023-07-29T12:28:49;2.10;;;1.15;;
1048;SDS011;513;51.444;7.196;2023-07-29T12:31:16;3.13;;;1.40;;
1048;SDS011;513;51.444;7.196;2023-07-29T12:33:43;2.95;;;1.30;;
1048;SDS011;513;51.444;7.196;2023-07-29T12:36:10;2.53;;;1.38;;
1048;SDS011;513;51.444;7.196;2023-07-29T12:38:37;1.95;;;1.23;;
1048;SDS011;513;51.444;7.196;2023-07-29T12:41:04;2.10;;;1.27;;
1048;SDS011;513;51.444;7.196;2023-07-29T12:43:40;2.55;;;1.48;;
1048;SDS011;513;51.444;7.196;2023-07-29T12:46:09;3.00;;;1.30;;
1048;SDS011;513;51.444;7.196;2023-07-29T12:48:36;1.63;;;1.10;;
1048;SDS011;513;51.444;7.196;2023-07-29T12:51:02;2.20;;;1.40;;
1048;SDS011;513;51.444;7.196;2023-07-29T12:53:29;2.95;;;1.50;;
1048;SDS011;513;51.444;7.196;2023-07-29T12:55:56;2.80;;;1.63;;
1048;SDS011;513;51.444;7.196;2023-07-29T12:58:26;2.30;;;1.60;;
1048;SDS011;513;51.444;7.196;2023-07-29T13:00:53;2.80;;;1.48;;
1048;SDS011;513;51.444;7.196;2023-07-29T13:03:21;3.20;;;1.58;;
1048;SDS011;513;51.444;7.196;2023-07-29T13:05:48;1.85;;;1.50;;
1048;SDS011;513;51.444;7.196;2023-07-29T13:08:15;2.70;;;1.57;;
1048;SDS011;513;51.444;7.196;2023-07-29T13:10:42;2.63;;;1.58;;
1048;SDS011;513;51.444;7.196;2023-07-29T13:13:09;2.28;;;1.40;;
1048;SDS011;513;51.444;7.196;2023-07-29T13:15:36;3.47;;;1.30;;
1048;SDS011;513;51.444;7.196;2023-07-29T13:18:03;2.60;;;1.70;;
1048;SDS011;513;51.444;7.196;2023-07-29T13:20:32;2.63;;;1.90;;
1048;SDS011;513;51.444;7.196;2023-07-29T13:22:59;2.33;;;1.70;;
1048;SDS011;513;51.444;7.196;2023-07-29T13:25:26;3.60;;;1.90;;
1048;SDS011;513;51.444;7.196;2023-07-29T13:27:53;2.25;;;1.63;;
1048;SDS011;513;51.444;7.196;2023-07-29T13:30:20;3.60;;;1.67;;
1048;SDS011;513;51.444;7.196;2023-07-29T13:32:47;2.20;;;1.70;;
1048;SDS011;513;51.444;7.196;2023-07-29T13:35:14;2.27;;;1.60;;
1048;SDS011;513;51.444;7.196;2023-07-29T13:37:43;2.85;;;1.70;;
1048;SDS011;513;51.444;7.196;2023-07-29T13:40:10;3.05;;;1.73;;
1048;SDS011;513;51.444;7.196;2023-07-29T13:42:37;3.75;;;1.58;;
1048;SDS011;513;51.444;7.196;2023-07-29T13:45:04;2.57;;;1.70;;
1048;SDS011;513;51.444;7.196;2023-07-29T13:47:31;2.75;;;1.60;;
1048;SDS011;513;51.444;7.196;2023-07-29T13:49:59;3.33;;;1.60;;
1048;SDS011;513;51.444;7.196;2023-07-29T13:52:26;2.67;;;1.80;;
1048;SDS011;513;51.444;7.196;2023-07-29T13:54:54;1.90;;;1.60;;
1048;SDS011;513;51.444;7.196;2023-07-29T13:57:21;2.07;;;1.60;;
1048;SDS011;513;51.444;7.196;2023-07-29T13:59:48;2.70;;;1.40;;
1048;SDS011;513;51.444;7.196;2023-07-29T14:02:15;2.45;;;1.50;;
1048;SDS011;513;51.444;7.196;2023-07-29T14:04:42;2.60;;;1.60;;
1048;SDS011;513;51.444;7.196;2023-07-29T14:07:09;1.70;;;1.50;;
1048;SDS011;513;51.444;7.196;2023-07-29T14:09:36;2.63;;;1.60;;
1048;SDS011;513;51.444;7.196;2023-07-29T14:12:05;3.72;;;1.83;;
1048;SDS011;513;51.444;7.196;2023-07-29T14:14:32;4.35;;;1.80;;
1048;SDS011;513;51.444;7.196;2023-07-29T14:16:59;4.38;;;2.00;;
1048;SDS011;513;51.444;7.196;2023-07-29T14:19:26;3.27;;;2.40;;
1048;SDS011;513;51.444;7.196;2023-07-29T14:21:53;3.95;;;2.50;;
1048;SDS011;513;51.444;7.196;2023-07-29T14:24:20;4.93;;;3.00;;
1048;SDS011;513;51.444;7.196;2023-07-29T14:26:47;4.63;;;2.55;;
1048;SDS011;513;51.444;7.196;2023-07-29T14:29:19;3.95;;;2.50;;
1048;SDS011;513;51.444;7.196;2023-07-29T14:31:46;5.05;;;2.50;;
1048;SDS011;513;51.444;7.196;2023-07-29T14:34:13;4.03;;;2.75;;
1048;SDS011;513;51.444;7.196;2023-07-29T14:36:40;4.60;;;3.20;;
1048;SDS011;513;51.444;7.196;2023-07-29T14:39:07;6.32;;;3.88;;
1048;SDS011;513;51.444;7.196;2023-07-29T14:41:34;4.75;;;3.30;;
1048;SDS011;513;51.444;7.196;2023-07-29T14:44:01;4.18;;;2.30;;
1048;SDS011;513;51.444;7.196;2023-07-29T14:46:30;3.90;;;2.53;;
1048;SDS011;513;51.444;7.196;2023-07-29T14:48:57;3.15;;;2.00;;
1048;SDS011;513;51.444;7.196;2023-07-29T14:51:24;1.83;;;1.60;;
1048;SDS011;513;51.444;7.196;2023-07-29T14:53:51;2.40;;;1.90;;
1048;SDS011;513;51.444;7.196;2023-07-29T14:56:18;2.83;;;1.80;;
1048;SDS011;513;51.444;7.196;2023-07-29T14:58:45;2.20;;;1.48;;
1048;SDS011;513;51.444;7.196;2023-07-29T15:01:14;2.45;;;1.63;;
1048;SDS011;513;51.444;7.196;2023-07-29T15:03:42;2.83;;;1.55;;
1048;SDS011;513;51.444;7.196;2023-07-29T15:06:09;3.67;;;1.98;;
1048;SDS011;513;51.444;7.196;2023-07-29T15:08:36;2.67;;;1.90;;
1048;SDS011;513;51.444;7.196;2023-07-29T15:11:03;2.80;;;2.28;;
1048;SDS011;513;51.444;7.196;2023-07-29T15:13:31;4.60;;;2.70;;
1048;SDS011;513;51.444;7.196;2023-07-29T15:15:58;3.67;;;2.28;;
1048;SDS011;513;51.444;7.196;2023-07-29T15:18:25;2.85;;;2.10;;
1048;SDS011;513;51.444;7.196;2023-07-29T15:20:56;4.03;;;2.20;;
1048;SDS011;513;51.444;7.196;2023-07-29T15:23:24;3.03;;;2.20;;
1048;SDS011;513;51.444;7.196;2023-07-29T15:25:51;3.95;;;2.38;;
1048;SDS011;513;51.444;7.196;2023-07-29T15:28:18;4.80;;;2.53;;